sensor_id;sensor_type;location;lat;lon;timestamp;P1;durP1;ratioP1;P2;durP2;ratioP2
10232;SDS011;5161;48.174;11.756;2024-01-30T00:00:43;20.97;;;14.20;;
10232;SDS011;5161;48.174;11.756;2024-01-30T00:03:08;18.73;;;13.77;;
10232;SDS011;5161;48.174;11.756;2024-01-30T00:05:34;18.37;;;13.80;;
10232;SDS011;5161;48.174;11.756;2024-01-30T00:08:00;16.43;;;12.77;;
10232;SDS011;5161;48.174;11.756;2024-01-30T00:10:25;17.77;;;12.70;;
10232;SDS011;5161;48.174;11.756;2024-01-30T00:12:51;14.30;;;11.43;;
10232;SDS011;5161;48.174;11.756;2024-01-30T00:15:17;16.70;;;11.40;;
10232;SDS011;5161;48.174;11.756;2024-01-30T00:17:43;14.97;;;11.33;;
10232;SDS011;5161;48.174;11.756;2024-01-30T00:20:09;15.23;;;11.43;;
10232;SDS011;5161;48.174;11.756;2024-01-30T00:22:34;16.07;;;11.10;;
10232;SDS011;5161;48.174;11.756;2024-01-30T00:25:00;15.23;;;11.13;;
10232;SDS011;5161;48.174;11.756;2024-01-30T00:27:26;16.07;;;11.40;;
10232;SDS011;5161;48.174;11.756;2024-01-30T00:29:52;16.10;;;9.90;;
10232;SDS011;5161;48.174;11.756;2024-01-30T00:32:18;13.83;;;10.53;;
10232;SDS011;5161;48.174;11.756;2024-01-30T00:34:45;13.63;;;10.80;;
10232;SDS011;5161;48.174;11.756;2024-01-30T00:37:10;15.77;;;10.47;;
10232;SDS011;5161;48.174;11.756;2024-01-30T00:39:36;13.77;;;10.03;;
10232;SDS011;5161;48.174;11.756;2024-01-30T00:42:02;14.40;;;10.63;;
10232;SDS011;5161;48.174;11.756;2024-01-30T00:44:27;17.33;;;10.23;;
10232;SDS011;5161;48.174;11.756;2024-01-30T00:46:53;13.63;;;10.57;;
10232;SDS011;5161;48.174;11.756;2024-01-30T00:49:19;14.40;;;10.33;;
10232;SDS011;5161;48.174;11.756;2024-01-30T00:51:44;15.67;;;10.60;;
10232;SDS011;5161;48.174;11.756;2024-01-30T00:54:11;16.57;;;9.80;;
10232;SDS011;5161;48.174;11.756;2024-01-30T00:56:36;13.43;;;9.90;;
10232;SDS011;5161;48.174;11.756;2024-01-30T00:59:02;15.60;;;10.33;;
10232;SDS011;5161;48.174;11.756;2024-01-30T01:01:28;13.37;;;9.57;;
10232;SDS011;5161;48.174;11.756;2024-01-30T01:03:53;13.50;;;9.53;;
10232;SDS011;5161;48.174;11.756;2024-01-30T01:06:19;14.50;;;9.97;;
10232;SDS011;5161;48.174;11.756;2024-01-30T01:08:44;13.73;;;9.60;;
10232;SDS011;5161;48.174;11.756;2024-01-30T01:11:10;12.83;;;9.60;;
10232;SDS011;5161;48.174;11.756;2024-01-30T01:13:36;12.63;;;9.70;;
10232;SDS011;5161;48.174;11.756;2024-01-30T01:16:01;13.17;;;9.30;;
10232;SDS011;5161;48.174;11.756;2024-01-30T01:18:27;13.77;;;9.80;;
10232;SDS011;5161;48.174;11.756;2024-01-30T01:20:52;13.33;;;9.73;;
10232;SDS011;5161;48.174;11.756;2024-01-30T01:23:18;10.77;;;9.00;;
10232;SDS011;5161;48.174;11.756;2024-01-30T01:25:44;15.00;;;9.10;;
10232;SDS011;5161;48.174;11.756;2024-01-30T01:28:09;14.73;;;9.40;;
10232;SDS011;5161;48.174;11.756;2024-01-30T01:30:35;11.77;;;8.80;;
10232;SDS011;5161;48.174;11.756;2024-01-30T01:33:00;11.40;;;9.03;;
10232;SDS011;5161;48.174;11.756;2024-01-30T01:35:27;12.73;;;9.60;;
10232;SDS011;5161;48.174;11.756;2024-01-30T01:37:53;12.43;;;8.17;;
10232;SDS011;5161;48.174;11.756;2024-01-30T01:40:24;11.77;;;8.73;;
10232;SDS011;5161;48.174;11.756;2024-01-30T01:42:51;10.07;;;8.13;;
10232;SDS011;5161;48.174;11.756;2024-01-30T01:45:18;13.77;;;8.23;;
10232;SDS011;5161;48.174;11.756;2024-01-30T01:47:44;12.33;;;8.07;;
10232;SDS011;5161;48.174;11.756;2024-01-30T01:50:15;11.47;;;8.50;;
10232;SDS011;5161;48.174;11.756;2024-01-30T01:52:44;11.33;;;8.20;;
10232;SDS011;5161;48.174;11.756;2024-01-30T01:55:12;11.17;;;8.10;;
10232;SDS011;5161;48.174;11.756;2024-01-30T01:57:40;10.73;;;7.90;;
10232;SDS011;5161;48.174;11.756;2024-01-30T02:00:07;11.00;;;7.97;;
10232;SDS011;5161;48.174;11.756;2024-01-30T02:02:35;10.90;;;7.63;;
10232;SDS011;5161;48.174;11.756;2024-01-30T02:05:01;10.17;;;7.87;;
10232;SDS011;5161;48.174;11.756;2024-01-30T02:07:30;10.43;;;8.00;;
10232;SDS011;5161;48.174;11.756;2024-01-30T02:09:55;11.20;;;7.80;;
10232;SDS011;5161;48.174;11.756;2024-01-30T02:12:21;9.80;;;7.70;;
10232;SDS011;5161;48.174;11.756;2024-01-30T02:14:47;9.37;;;7.80;;
10232;SDS011;5161;48.174;11.756;2024-01-30T02:17:13;9.23;;;7.67;;
10232;SDS011;5161;48.174;11.756;2024-01-30T02:19:40;10.37;;;7.47;;
10232;SDS011;5161;48.174;11.756;2024-01-30T02:22:06;10.37;;;7.30;;
10232;SDS011;5161;48.174;11.756;2024-01-30T02:24:32;10.13;;;7.70;;
10232;SDS011;5161;48.174;11.756;2024-01-30T02:26:58;10.40;;;7.53;;
10232;SDS011;5161;48.174;11.756;2024-01-30T02:29:24;10.40;;;7.40;;
10232;SDS011;5161;48.174;11.756;2024-01-30T02:31:49;9.63;;;7.17;;
10232;SDS011;5161;48.174;11.756;2024-01-30T02:34:15;10.43;;;7.17;;
10232;SDS011;5161;48.174;11.756;2024-01-30T02:36:44;9.00;;;6.90;;
10232;SDS011;5161;48.174;11.756;2024-01-30T02:39:10;9.33;;;7.33;;
10232;SDS011;5161;48.174;11.756;2024-01-30T02:41:35;10.73;;;7.63;;
10232;SDS011;5161;48.174;11.756;2024-01-30T02:44:04;10.53;;;7.30;;
10232;SDS011;5161;48.174;11.756;2024-01-30T02:46:30;9.57;;;6.67;;
10232;SDS011;5161;48.174;11.756;2024-01-30T02:48:56;10.13;;;6.60;;
10232;SDS011;5161;48.174;11.756;2024-01-30T02:51:22;7.67;;;6.50;;
10232;SDS011;5161;48.174;11.756;2024-01-30T02:53:47;9.00;;;6.63;;
10232;SDS011;5161;48.174;11.756;2024-01-30T02:56:13;9.27;;;6.70;;
10232;SDS011;5161;48.174;11.756;2024-01-30T02:58:39;7.90;;;6.17;;
10232;SDS011;5161;48.174;11.756;2024-01-30T03:01:05;7.63;;;6.07;;
10232;SDS011;5161;48.174;11.756;2024-01-30T03:03:31;6.97;;;6.23;;
10232;SDS011;5161;48.174;11.756;2024-01-30T03:05:57;10.67;;;6.53;;
10232;SDS011;5161;48.174;11.756;2024-01-30T03:08:22;7.20;;;6.07;;
10232;SDS011;5161;48.174;11.756;2024-01-30T03:10:48;9.83;;;6.63;;
10232;SDS011;5161;48.174;11.756;2024-01-30T03:13:14;6.77;;;5.70;;
10232;SDS011;5161;48.174;11.756;2024-01-30T03:15:39;9.30;;;6.07;;
10232;SDS011;5161;48.174;11.756;2024-01-30T03:18:05;9.40;;;5.57;;
10232;SDS011;5161;48.174;11.756;2024-01-30T03:20:31;8.00;;;5.87;;
10232;SDS011;5161;48.174;11.756;2024-01-30T03:22:57;7.13;;;6.07;;
10232;SDS011;5161;48.174;11.756;2024-01-30T03:25:24;7.27;;;5.70;;
10232;SDS011;5161;48.174;11.756;2024-01-30T03:27:50;6.70;;;5.70;;
10232;SDS011;5161;48.174;11.756;2024-01-30T03:30:16;6.53;;;5.50;;
10232;SDS011;5161;48.174;11.756;2024-01-30T03:32:42;8.43;;;5.60;;
10232;SDS011;5161;48.174;11.756;2024-01-30T03:35:08;6.73;;;5.53;;
10232;SDS011;5161;48.174;11.756;2024-01-30T03:37:34;7.03;;;5.87;;
10232;SDS011;5161;48.174;11.756;2024-01-30T03:40:01;8.00;;;5.87;;
10232;SDS011;5161;48.174;11.756;2024-01-30T03:42:27;10.60;;;5.83;;
10232;SDS011;5161;48.174;11.756;2024-01-30T03:44:52;7.83;;;5.60;;
10232;SDS011;5161;48.174;11.756;2024-01-30T03:47:18;8.80;;;5.47;;
10232;SDS011;5161;48.174;11.756;2024-01-30T03:49:45;8.10;;;5.17;;
10232;SDS011;5161;48.174;11.756;2024-01-30T03:52:10;6.80;;;4.97;;
10232;SDS011;5161;48.174;11.756;2024-01-30T03:54:36;6.60;;;5.37;;
10232;SDS011;5161;48.174;11.756;2024-01-30T03:57:02;6.83;;;5.10;;
10232;SDS011;5161;48.174;11.756;2024-01-30T03:59:28;6.30;;;5.20;;
10232;SDS011;5161;48.174;11.756;2024-01-30T04:01:54;5.27;;;4.77;;
10232;SDS011;5161;48.174;11.756;2024-01-30T04:04:20;7.30;;;5.00;;
10232;SDS011;5161;48.174;11.756;2024-01-30T04:06:46;6.23;;;4.97;;
10232;SDS011;5161;48.174;11.756;2024-01-30T04:09:12;5.83;;;5.00;;
10232;SDS011;5161;48.174;11.756;2024-01-30T04:11:38;6.53;;;5.10;;
10232;SDS011;5161;48.174;11.756;2024-01-30T04:14:04;5.57;;;4.93;;
10232;SDS011;5161;48.174;11.756;2024-01-30T04:16:30;7.60;;;4.70;;
10232;SDS011;5161;48.174;11.756;2024-01-30T04:18:55;6.87;;;5.07;;
10232;SDS011;5161;48.174;11.756;2024-01-30T04:21:21;6.47;;;4.90;;
10232;SDS011;5161;48.174;11.756;2024-01-30T04:23:47;7.07;;;5.30;;
10232;SDS011;5161;48.174;11.756;2024-01-30T04:26:13;7.50;;;5.40;;
10232;SDS011;5161;48.174;11.756;2024-01-30T04:28:41;6.53;;;5.20;;
10232;SDS011;5161;48.174;11.756;2024-01-30T04:31:07;6.77;;;4.77;;
10232;SDS011;5161;48.174;11.756;2024-01-30T04:33:32;7.13;;;5.13;;
10232;SDS011;5161;48.174;11.756;2024-01-30T04:35:59;4.97;;;4.47;;
10232;SDS011;5161;48.174;11.756;2024-01-30T04:38:24;5.30;;;4.60;;
10232;SDS011;5161;48.174;11.756;2024-01-30T04:40:50;7.07;;;5.03;;
10232;SDS011;5161;48.174;11.756;2024-01-30T04:43:15;6.33;;;4.77;;
10232;SDS011;5161;48.174;11.756;2024-01-30T04:45:41;7.83;;;5.07;;
10232;SDS011;5161;48.174;11.756;2024-01-30T04:48:07;5.23;;;4.57;;
10232;SDS011;5161;48.174;11.756;2024-01-30T04:50:32;7.57;;;4.87;;
10232;SDS011;5161;48.174;11.756;2024-01-30T04:52:58;6.03;;;4.50;;
10232;SDS011;5161;48.174;11.756;2024-01-30T04:55:23;10.83;;;4.77;;
10232;SDS011;5161;48.174;11.756;2024-01-30T04:57:49;5.67;;;4.40;;
10232;SDS011;5161;48.174;11.756;2024-01-30T05:00:15;4.50;;;4.10;;
10232;SDS011;5161;48.174;11.756;2024-01-30T05:02:41;5.63;;;4.47;;
10232;SDS011;5161;48.174;11.756;2024-01-30T05:05:06;5.17;;;4.30;;
10232;SDS011;5161;48.174;11.756;2024-01-30T05:07:32;5.43;;;4.20;;
10232;SDS011;5161;48.174;11.756;2024-01-30T05:09:59;6.27;;;4.83;;
10232;SDS011;5161;48.174;11.756;2024-01-30T05:12:24;6.17;;;4.40;;
10232;SDS011;5161;48.174;11.756;2024-01-30T05:14:50;4.30;;;3.90;;
10232;SDS011;5161;48.174;11.756;2024-01-30T05:17:16;5.87;;;4.20;;
10232;SDS011;5161;48.174;11.756;2024-01-30T05:19:43;5.60;;;3.90;;
10232;SDS011;5161;48.174;11.756;2024-01-30T05:22:09;4.73;;;4.10;;
10232;SDS011;5161;48.174;11.756;2024-01-30T05:24:35;4.87;;;3.90;;
10232;SDS011;5161;48.174;11.756;2024-01-30T05:27:02;5.80;;;3.93;;
10232;SDS011;5161;48.174;11.756;2024-01-30T05:29:27;6.27;;;4.33;;
10232;SDS011;5161;48.174;11.756;2024-01-30T05:31:53;5.27;;;4.10;;
10232;SDS011;5161;48.174;11.756;2024-01-30T05:34:18;4.93;;;3.97;;
10232;SDS011;5161;48.174;11.756;2024-01-30T05:36:44;5.23;;;3.93;;
10232;SDS011;5161;48.174;11.756;2024-01-30T05:39:09;7.30;;;4.03;;
10232;SDS011;5161;48.174;11.756;2024-01-30T05:41:35;6.73;;;4.03;;
10232;SDS011;5161;48.174;11.756;2024-01-30T05:44:01;5.50;;;3.90;;
10232;SDS011;5161;48.174;11.756;2024-01-30T05:46:27;4.97;;;3.90;;
10232;SDS011;5161;48.174;11.756;2024-01-30T05:48:52;5.63;;;4.00;;
10232;SDS011;5161;48.174;11.756;2024-01-30T05:51:18;4.67;;;3.70;;
10232;SDS011;5161;48.174;11.756;2024-01-30T05:53:44;4.77;;;3.80;;
10232;SDS011;5161;48.174;11.756;2024-01-30T05:56:09;5.50;;;3.83;;
10232;SDS011;5161;48.174;11.756;2024-01-30T05:58:35;4.43;;;3.47;;
10232;SDS011;5161;48.174;11.756;2024-01-30T06:01:02;4.90;;;3.73;;
10232;SDS011;5161;48.174;11.756;2024-01-30T06:03:31;6.70;;;3.77;;
10232;SDS011;5161;48.174;11.756;2024-01-30T06:05:57;5.40;;;3.53;;
10232;SDS011;5161;48.174;11.756;2024-01-30T06:08:22;5.27;;;3.70;;
10232;SDS011;5161;48.174;11.756;2024-01-30T06:10:48;4.73;;;3.90;;
10232;SDS011;5161;48.174;11.756;2024-01-30T06:13:14;5.67;;;3.70;;
10232;SDS011;5161;48.174;11.756;2024-01-30T06:15:39;8.77;;;3.83;;
10232;SDS011;5161;48.174;11.756;2024-01-30T06:18:05;7.20;;;4.10;;
10232;SDS011;5161;48.174;11.756;2024-01-30T06:20:30;5.87;;;3.73;;
10232;SDS011;5161;48.174;11.756;2024-01-30T06:22:56;4.53;;;4.00;;
10232;SDS011;5161;48.174;11.756;2024-01-30T06:25:22;5.60;;;4.10;;
10232;SDS011;5161;48.174;11.756;2024-01-30T06:27:47;5.77;;;3.77;;
10232;SDS011;5161;48.174;11.756;2024-01-30T06:30:13;5.13;;;3.73;;
10232;SDS011;5161;48.174;11.756;2024-01-30T06:32:39;4.93;;;3.70;;
10232;SDS011;5161;48.174;11.756;2024-01-30T06:35:05;4.77;;;4.27;;
10232;SDS011;5161;48.174;11.756;2024-01-30T06:37:31;6.90;;;4.90;;
10232;SDS011;5161;48.174;11.756;2024-01-30T06:39:56;5.20;;;4.30;;
10232;SDS011;5161;48.174;11.756;2024-01-30T06:42:22;6.93;;;3.93;;
10232;SDS011;5161;48.174;11.756;2024-01-30T06:44:47;7.63;;;3.77;;
10232;SDS011;5161;48.174;11.756;2024-01-30T06:47:13;5.70;;;3.60;;
10232;SDS011;5161;48.174;11.756;2024-01-30T06:49:38;8.17;;;4.07;;
10232;SDS011;5161;48.174;11.756;2024-01-30T06:52:06;6.97;;;3.60;;
10232;SDS011;5161;48.174;11.756;2024-01-30T06:54:33;6.77;;;3.63;;
10232;SDS011;5161;48.174;11.756;2024-01-30T06:56:59;5.77;;;4.80;;
10232;SDS011;5161;48.174;11.756;2024-01-30T06:59:25;5.30;;;4.53;;
10232;SDS011;5161;48.174;11.756;2024-01-30T07:01:50;5.03;;;4.10;;
10232;SDS011;5161;48.174;11.756;2024-01-30T07:04:16;5.83;;;3.87;;
10232;SDS011;5161;48.174;11.756;2024-01-30T07:06:43;4.13;;;3.57;;
10232;SDS011;5161;48.174;11.756;2024-01-30T07:09:08;4.60;;;3.40;;
10232;SDS011;5161;48.174;11.756;2024-01-30T07:11:34;5.80;;;4.03;;
10232;SDS011;5161;48.174;11.756;2024-01-30T07:14:00;4.33;;;3.27;;
10232;SDS011;5161;48.174;11.756;2024-01-30T07:16:28;8.83;;;3.43;;
10232;SDS011;5161;48.174;11.756;2024-01-30T07:18:54;4.03;;;3.33;;
10232;SDS011;5161;48.174;11.756;2024-01-30T07:21:21;5.20;;;3.10;;
10232;SDS011;5161;48.174;11.756;2024-01-30T07:23:50;6.47;;;4.13;;
10232;SDS011;5161;48.174;11.756;2024-01-30T07:26:15;10.20;;;3.60;;
10232;SDS011;5161;48.174;11.756;2024-01-30T07:28:41;5.63;;;3.90;;
10232;SDS011;5161;48.174;11.756;2024-01-30T07:31:07;7.80;;;3.93;;
10232;SDS011;5161;48.174;11.756;2024-01-30T07:33:33;6.83;;;4.10;;
10232;SDS011;5161;48.174;11.756;2024-01-30T07:35:58;4.00;;;3.60;;
10232;SDS011;5161;48.174;11.756;2024-01-30T07:38:24;7.40;;;4.07;;
10232;SDS011;5161;48.174;11.756;2024-01-30T07:40:50;5.97;;;3.37;;
10232;SDS011;5161;48.174;11.756;2024-01-30T07:43:16;4.83;;;3.70;;
10232;SDS011;5161;48.174;11.756;2024-01-30T07:45:41;15.63;;;4.50;;
10232;SDS011;5161;48.174;11.756;2024-01-30T07:48:07;11.87;;;4.03;;
10232;SDS011;5161;48.174;11.756;2024-01-30T07:50:32;6.73;;;3.93;;
10232;SDS011;5161;48.174;11.756;2024-01-30T07:52:59;4.47;;;3.90;;
10232;SDS011;5161;48.174;11.756;2024-01-30T07:55:25;6.47;;;3.70;;
10232;SDS011;5161;48.174;11.756;2024-01-30T07:57:53;7.20;;;4.03;;
10232;SDS011;5161;48.174;11.756;2024-01-30T08:00:22;12.87;;;4.23;;
10232;SDS011;5161;48.174;11.756;2024-01-30T08:02:48;8.33;;;4.07;;
10232;SDS011;5161;48.174;11.756;2024-01-30T08:05:20;5.80;;;4.00;;
10232;SDS011;5161;48.174;11.756;2024-01-30T08:07:47;4.70;;;3.70;;
10232;SDS011;5161;48.174;11.756;2024-01-30T08:10:14;4.60;;;3.80;;
10232;SDS011;5161;48.174;11.756;2024-01-30T08:12:40;5.63;;;3.70;;
10232;SDS011;5161;48.174;11.756;2024-01-30T08:15:05;4.47;;;4.07;;
10232;SDS011;5161;48.174;11.756;2024-01-30T08:17:31;8.43;;;4.50;;
10232;SDS011;5161;48.174;11.756;2024-01-30T08:19:57;8.80;;;5.10;;
10232;SDS011;5161;48.174;11.756;2024-01-30T08:22:22;7.50;;;5.20;;
10232;SDS011;5161;48.174;11.756;2024-01-30T08:24:48;11.93;;;5.40;;
10232;SDS011;5161;48.174;11.756;2024-01-30T08:27:13;12.33;;;5.73;;
10232;SDS011;5161;48.174;11.756;2024-01-30T08:29:39;8.73;;;5.73;;
10232;SDS011;5161;48.174;11.756;2024-01-30T08:32:05;14.27;;;5.57;;
10232;SDS011;5161;48.174;11.756;2024-01-30T08:34:31;12.93;;;5.60;;
10232;SDS011;5161;48.174;11.756;2024-01-30T08:36:57;17.20;;;5.00;;
10232;SDS011;5161;48.174;11.756;2024-01-30T08:39:22;12.60;;;3.97;;
10232;SDS011;5161;48.174;11.756;2024-01-30T08:41:48;13.67;;;4.23;;
10232;SDS011;5161;48.174;11.756;2024-01-30T08:44:13;7.53;;;3.97;;
10232;SDS011;5161;48.174;11.756;2024-01-30T08:46:39;13.20;;;5.20;;
10232;SDS011;5161;48.174;11.756;2024-01-30T08:49:05;6.67;;;4.20;;
10232;SDS011;5161;48.174;11.756;2024-01-30T08:51:30;5.93;;;4.27;;
10232;SDS011;5161;48.174;11.756;2024-01-30T08:53:56;4.10;;;3.70;;
10232;SDS011;5161;48.174;11.756;2024-01-30T08:56:21;6.70;;;3.87;;
10232;SDS011;5161;48.174;11.756;2024-01-30T08:58:47;7.90;;;4.40;;
10232;SDS011;5161;48.174;11.756;2024-01-30T09:01:13;5.17;;;4.10;;
10232;SDS011;5161;48.174;11.756;2024-01-30T09:03:39;6.73;;;4.37;;
10232;SDS011;5161;48.174;11.756;2024-01-30T09:06:12;6.07;;;4.30;;
10232;SDS011;5161;48.174;11.756;2024-01-30T09:08:37;5.27;;;3.80;;
10232;SDS011;5161;48.174;11.756;2024-01-30T09:11:09;6.07;;;3.67;;
10232;SDS011;5161;48.174;11.756;2024-01-30T09:13:36;8.73;;;3.60;;
10232;SDS011;5161;48.174;11.756;2024-01-30T09:16:02;9.20;;;3.90;;
10232;SDS011;5161;48.174;11.756;2024-01-30T09:18:28;5.67;;;3.37;;
10232;SDS011;5161;48.174;11.756;2024-01-30T09:20:54;13.17;;;3.50;;
10232;SDS011;5161;48.174;11.756;2024-01-30T09:23:19;7.30;;;3.50;;
10232;SDS011;5161;48.174;11.756;2024-01-30T09:25:45;11.43;;;3.63;;
10232;SDS011;5161;48.174;11.756;2024-01-30T09:28:11;5.17;;;3.40;;
10232;SDS011;5161;48.174;11.756;2024-01-30T09:30:38;10.97;;;3.43;;
10232;SDS011;5161;48.174;11.756;2024-01-30T09:33:04;6.93;;;3.27;;
10232;SDS011;5161;48.174;11.756;2024-01-30T09:35:31;13.27;;;3.37;;
10232;SDS011;5161;48.174;11.756;2024-01-30T09:37:57;13.07;;;4.07;;
10232;SDS011;5161;48.174;11.756;2024-01-30T09:40:22;12.93;;;3.27;;
10232;SDS011;5161;48.174;11.756;2024-01-30T09:42:50;4.30;;;2.80;;
10232;SDS011;5161;48.174;11.756;2024-01-30T09:45:17;7.70;;;2.90;;
10232;SDS011;5161;48.174;11.756;2024-01-30T09:47:44;7.97;;;2.70;;
10232;SDS011;5161;48.174;11.756;2024-01-30T09:50:10;4.37;;;2.80;;
10232;SDS011;5161;48.174;11.756;2024-01-30T09:52:37;7.80;;;3.20;;
10232;SDS011;5161;48.174;11.756;2024-01-30T09:55:03;8.80;;;2.80;;
10232;SDS011;5161;48.174;11.756;2024-01-30T09:57:29;4.73;;;3.20;;
10232;SDS011;5161;48.174;11.756;2024-01-30T09:59:55;10.90;;;2.90;;
10232;SDS011;5161;48.174;11.756;2024-01-30T10:02:21;11.97;;;3.37;;
10232;SDS011;5161;48.174;11.756;2024-01-30T10:04:47;9.07;;;3.37;;
10232;SDS011;5161;48.174;11.756;2024-01-30T10:07:14;9.90;;;3.30;;
10232;SDS011;5161;48.174;11.756;2024-01-30T10:09:40;12.03;;;3.43;;
10232;SDS011;5161;48.174;11.756;2024-01-30T10:12:06;10.50;;;3.33;;
10232;SDS011;5161;48.174;11.756;2024-01-30T10:14:32;9.13;;;3.20;;
10232;SDS011;5161;48.174;11.756;2024-01-30T10:16:58;8.63;;;3.40;;
10232;SDS011;5161;48.174;11.756;2024-01-30T10:19:24;14.33;;;3.60;;
10232;SDS011;5161;48.174;11.756;2024-01-30T10:21:50;10.37;;;3.60;;
10232;SDS011;5161;48.174;11.756;2024-01-30T10:24:15;7.20;;;3.40;;
10232;SDS011;5161;48.174;11.756;2024-01-30T10:26:43;7.50;;;3.30;;
10232;SDS011;5161;48.174;11.756;2024-01-30T10:29:09;9.03;;;3.70;;
10232;SDS011;5161;48.174;11.756;2024-01-30T10:31:34;11.03;;;3.47;;
10232;SDS011;5161;48.174;11.756;2024-01-30T10:34:00;10.50;;;6.27;;
10232;SDS011;5161;48.174;11.756;2024-01-30T10:36:28;9.67;;;4.97;;
10232;SDS011;5161;48.174;11.756;2024-01-30T10:38:59;12.43;;;4.50;;
10232;SDS011;5161;48.174;11.756;2024-01-30T10:41:28;6.30;;;4.53;;
10232;SDS011;5161;48.174;11.756;2024-01-30T10:44:07;8.20;;;3.93;;
10232;SDS011;5161;48.174;11.756;2024-01-30T10:46:35;5.90;;;4.13;;
10232;SDS011;5161;48.174;11.756;2024-01-30T10:49:02;10.70;;;4.10;;
10232;SDS011;5161;48.174;11.756;2024-01-30T10:51:29;6.70;;;3.97;;
10232;SDS011;5161;48.174;11.756;2024-01-30T10:53:57;6.73;;;3.40;;
10232;SDS011;5161;48.174;11.756;2024-01-30T10:56:22;7.53;;;3.43;;
10232;SDS011;5161;48.174;11.756;2024-01-30T10:58:49;6.57;;;3.67;;
10232;SDS011;5161;48.174;11.756;2024-01-30T11:01:17;9.27;;;3.93;;
10232;SDS011;5161;48.174;11.756;2024-01-30T11:03:44;10.77;;;4.80;;
10232;SDS011;5161;48.174;11.756;2024-01-30T11:06:11;7.60;;;4.90;;
10232;SDS011;5161;48.174;11.756;2024-01-30T11:08:39;9.57;;;4.53;;
10232;SDS011;5161;48.174;11.756;2024-01-30T11:11:07;9.33;;;4.17;;
10232;SDS011;5161;48.174;11.756;2024-01-30T11:13:34;9.97;;;5.27;;
10232;SDS011;5161;48.174;11.756;2024-01-30T11:16:00;14.00;;;4.60;;
10232;SDS011;5161;48.174;11.756;2024-01-30T11:18:30;10.67;;;4.60;;
10232;SDS011;5161;48.174;11.756;2024-01-30T11:20:57;10.50;;;4.83;;
10232;SDS011;5161;48.174;11.756;2024-01-30T11:23:27;7.27;;;4.10;;
10232;SDS011;5161;48.174;11.756;2024-01-30T11:25:53;4.63;;;4.23;;
10232;SDS011;5161;48.174;11.756;2024-01-30T11:28:20;6.17;;;4.10;;
10232;SDS011;5161;48.174;11.756;2024-01-30T11:30:47;5.80;;;3.97;;
10232;SDS011;5161;48.174;11.756;2024-01-30T11:33:15;10.80;;;4.13;;
10232;SDS011;5161;48.174;11.756;2024-01-30T11:35:56;11.40;;;4.80;;
10232;SDS011;5161;48.174;11.756;2024-01-30T11:38:27;7.37;;;4.30;;
10232;SDS011;5161;48.174;11.756;2024-01-30T11:40:54;10.97;;;4.30;;
10232;SDS011;5161;48.174;11.756;2024-01-30T11:43:23;8.83;;;3.97;;
10232;SDS011;5161;48.174;11.756;2024-01-30T11:45:49;8.63;;;3.67;;
10232;SDS011;5161;48.174;11.756;2024-01-30T11:48:14;8.90;;;4.50;;
10232;SDS011;5161;48.174;11.756;2024-01-30T11:50:40;7.40;;;4.33;;
10232;SDS011;5161;48.174;11.756;2024-01-30T11:53:06;8.90;;;4.53;;
10232;SDS011;5161;48.174;11.756;2024-01-30T11:55:31;11.80;;;4.60;;
10232;SDS011;5161;48.174;11.756;2024-01-30T11:57:58;6.97;;;4.30;;
10232;SDS011;5161;48.174;11.756;2024-01-30T12:00:24;7.50;;;4.57;;
10232;SDS011;5161;48.174;11.756;2024-01-30T12:02:50;6.33;;;4.00;;
10232;SDS011;5161;48.174;11.756;2024-01-30T12:05:18;10.00;;;4.43;;
10232;SDS011;5161;48.174;11.756;2024-01-30T12:07:45;10.60;;;5.00;;
10232;SDS011;5161;48.174;11.756;2024-01-30T12:10:12;9.57;;;3.87;;
10232;SDS011;5161;48.174;11.756;2024-01-30T12:12:44;7.63;;;4.40;;
10232;SDS011;5161;48.174;11.756;2024-01-30T12:15:21;8.00;;;4.60;;
10232;SDS011;5161;48.174;11.756;2024-01-30T12:17:47;5.80;;;3.93;;
10232;SDS011;5161;48.174;11.756;2024-01-30T12:20:13;6.53;;;4.23;;
10232;SDS011;5161;48.174;11.756;2024-01-30T12:22:40;7.07;;;4.10;;
10232;SDS011;5161;48.174;11.756;2024-01-30T12:25:16;5.47;;;4.07;;
10232;SDS011;5161;48.174;11.756;2024-01-30T12:27:43;9.87;;;4.13;;
10232;SDS011;5161;48.174;11.756;2024-01-30T12:30:11;7.80;;;4.70;;
10232;SDS011;5161;48.174;11.756;2024-01-30T12:32:41;7.40;;;4.77;;
10232;SDS011;5161;48.174;11.756;2024-01-30T12:35:11;6.37;;;4.40;;
10232;SDS011;5161;48.174;11.756;2024-01-30T12:37:37;10.77;;;5.60;;
10232;SDS011;5161;48.174;11.756;2024-01-30T12:40:04;9.93;;;5.00;;
10232;SDS011;5161;48.174;11.756;2024-01-30T12:42:31;8.63;;;4.90;;
10232;SDS011;5161;48.174;11.756;2024-01-30T12:44:57;8.47;;;4.97;;
10232;SDS011;5161;48.174;11.756;2024-01-30T12:47:23;11.73;;;5.47;;
10232;SDS011;5161;48.174;11.756;2024-01-30T12:49:49;10.47;;;5.73;;
10232;SDS011;5161;48.174;11.756;2024-01-30T12:52:18;12.70;;;5.67;;
10232;SDS011;5161;48.174;11.756;2024-01-30T12:54:44;7.87;;;4.77;;
10232;SDS011;5161;48.174;11.756;2024-01-30T12:57:10;10.43;;;4.80;;
10232;SDS011;5161;48.174;11.756;2024-01-30T12:59:36;11.10;;;4.70;;
10232;SDS011;5161;48.174;11.756;2024-01-30T13:02:01;9.77;;;5.10;;
10232;SDS011;5161;48.174;11.756;2024-01-30T13:04:28;10.70;;;5.13;;
10232;SDS011;5161;48.174;11.756;2024-01-30T13:06:54;10.30;;;5.17;;
10232;SDS011;5161;48.174;11.756;2024-01-30T13:09:19;11.00;;;4.80;;
10232;SDS011;5161;48.174;11.756;2024-01-30T13:11:45;15.97;;;4.90;;
10232;SDS011;5161;48.174;11.756;2024-01-30T13:14:11;12.10;;;5.20;;
10232;SDS011;5161;48.174;11.756;2024-01-30T13:16:36;12.67;;;5.23;;
10232;SDS011;5161;48.174;11.756;2024-01-30T13:19:02;15.70;;;5.37;;
10232;SDS011;5161;48.174;11.756;2024-01-30T13:21:28;15.17;;;5.30;;
10232;SDS011;5161;48.174;11.756;2024-01-30T13:23:54;8.90;;;5.60;;
10232;SDS011;5161;48.174;11.756;2024-01-30T13:26:20;8.23;;;5.60;;
10232;SDS011;5161;48.174;11.756;2024-01-30T13:28:46;10.83;;;5.60;;
10232;SDS011;5161;48.174;11.756;2024-01-30T13:31:12;9.27;;;5.10;;
10232;SDS011;5161;48.174;11.756;2024-01-30T13:33:39;7.67;;;5.07;;
10232;SDS011;5161;48.174;11.756;2024-01-30T13:36:05;7.70;;;5.10;;
10232;SDS011;5161;48.174;11.756;2024-01-30T13:38:31;18.30;;;7.83;;
10232;SDS011;5161;48.174;11.756;2024-01-30T13:40:57;12.93;;;6.73;;
10232;SDS011;5161;48.174;11.756;2024-01-30T13:43:22;14.53;;;7.13;;
10232;SDS011;5161;48.174;11.756;2024-01-30T13:45:48;18.80;;;9.97;;
10232;SDS011;5161;48.174;11.756;2024-01-30T13:48:13;11.30;;;7.50;;
10232;SDS011;5161;48.174;11.756;2024-01-30T13:50:39;8.33;;;6.33;;
10232;SDS011;5161;48.174;11.756;2024-01-30T13:53:04;11.40;;;6.63;;
10232;SDS011;5161;48.174;11.756;2024-01-30T13:55:30;12.37;;;6.33;;
10232;SDS011;5161;48.174;11.756;2024-01-30T13:57:55;9.90;;;5.93;;
10232;SDS011;5161;48.174;11.756;2024-01-30T14:00:21;11.37;;;6.13;;
10232;SDS011;5161;48.174;11.756;2024-01-30T14:02:48;11.77;;;6.53;;
10232;SDS011;5161;48.174;11.756;2024-01-30T14:05:13;7.27;;;5.97;;
10232;SDS011;5161;48.174;11.756;2024-01-30T14:07:40;13.67;;;6.37;;
10232;SDS011;5161;48.174;11.756;2024-01-30T14:10:08;11.77;;;6.37;;
10232;SDS011;5161;48.174;11.756;2024-01-30T14:12:36;10.97;;;6.00;;
10232;SDS011;5161;48.174;11.756;2024-01-30T14:15:01;14.87;;;6.90;;
10232;SDS011;5161;48.174;11.756;2024-01-30T14:17:27;9.07;;;6.10;;
10232;SDS011;5161;48.174;11.756;2024-01-30T14:19:53;12.90;;;7.10;;
10232;SDS011;5161;48.174;11.756;2024-01-30T14:22:18;11.60;;;6.60;;
10232;SDS011;5161;48.174;11.756;2024-01-30T14:24:44;18.30;;;7.43;;
10232;SDS011;5161;48.174;11.756;2024-01-30T14:27:09;14.33;;;7.90;;
10232;SDS011;5161;48.174;11.756;2024-01-30T14:29:35;17.03;;;7.07;;
10232;SDS011;5161;48.174;11.756;2024-01-30T14:32:01;10.00;;;6.37;;
10232;SDS011;5161;48.174;11.756;2024-01-30T14:34:27;10.53;;;6.83;;